Time;durP1;ratioP1;P1;durP2;ratioP2;P2;SDS_P1;SDS_P2;PMS_P1;PMS_P2;Temp;Humidity;BMP_temperature;BMP_pressure;BME280_temperature;BME280_humidity;BME280_pressure;Samples;Min_cycle;Max_cycle;Signal;HPM_P1;HPM_P2
2022/11/22 00:02:01;;;;;;;4.95;1.15;;;;;;;;;;6201489;23;20110;-79
2022/11/22 00:04:27;;;;;;;6.07;1.02;;;;;;;;;;6204627;23;20016;-73
2022/11/22 00:06:54;;;;;;;3.08;0.90;;;;;;;;;;6204048;23;20421;-73
2022/11/22 00:09:20;;;;;;;5.40;0.70;;;;;;;;;;6203775;23;20471;-81
2022/11/22 00:11:46;;;;;;;4.55;0.88;;;;;;;;;;6204372;23;20000;-74
2022/11/22 00:14:12;;;;;;;6.82;1.27;;;;;;;;;;6204255;23;20001;-73
2022/11/22 00:16:38;;;;;;;7.45;0.98;;;;;;;;;;6202559;23;20011;-76
2022/11/22 00:19:04;;;;;;;3.38;0.98;;;;;;;;;;6203974;23;20004;-73
2022/11/22 00:21:30;;;;;;;6.00;0.63;;;;;;;;;;6204205;23;20005;-74
2022/11/22 00:23:57;;;;;;;4.65;0.95;;;;;;;;;;6204457;23;20094;-74
2022/11/22 00:26:23;;;;;;;4.82;1.17;;;;;;;;;;6204077;23;20009;-76
2022/11/22 00:28:50;;;;;;;2.15;0.57;;;;;;;;;;6203953;23;20024;-75
2022/11/22 00:31:16;;;;;;;6.13;1.13;;;;;;;;;;6202269;23;20000;-74
2022/11/22 00:33:42;;;;;;;3.05;0.70;;;;;;;;;;6203870;23;20384;-73
2022/11/22 00:36:08;;;;;;;4.68;0.80;;;;;;;;;;6204003;23;20091;-73
2022/11/22 00:38:34;;;;;;;2.78;0.88;;;;;;;;;;6204457;23;20084;-74
2022/11/22 00:41:00;;;;;;;3.42;0.70;;;;;;;;;;6204117;23;20001;-73
2022/11/22 00:43:27;;;;;;;4.47;1.10;;;;;;;;;;6204633;23;20004;-75
2022/11/22 00:45:53;;;;;;;2.45;1.23;;;;;;;;;;6202299;23;20425;-77
2022/11/22 00:48:19;;;;;;;2.88;0.80;;;;;;;;;;6202624;23;20004;-78
2022/11/22 00:50:48;;;;;;;5.68;1.60;;;;;;;;;;6203967;23;20008;-74
2022/11/22 00:53:14;;;;;;;6.53;1.15;;;;;;;;;;6202851;23;20001;-78
2022/11/22 00:55:40;;;;;;;6.03;0.98;;;;;;;;;;6206027;23;20039;-74
2022/11/22 00:58:06;;;;;;;3.25;1.83;;;;;;;;;;6205507;23;20001;-73
2022/11/22 01:00:32;;;;;;;7.43;1.20;;;;;;;;;;6205998;23;20007;-74
2022/11/22 01:02:58;;;;;;;5.07;1.15;;;;;;;;;;6203977;23;20075;-79
2022/11/22 01:05:24;;;;;;;4.72;1.10;;;;;;;;;;6205028;23;20070;-74
2022/11/22 01:07:50;;;;;;;3.33;1.02;;;;;;;;;;6205400;23;20051;-74
2022/11/22 01:10:16;;;;;;;3.15;1.35;;;;;;;;;;6206161;23;20360;-73
2022/11/22 01:12:43;;;;;;;5.25;1.05;;;;;;;;;;6205783;23;20008;-75
2022/11/22 01:15:09;;;;;;;3.92;1.25;;;;;;;;;;6204910;23;20005;-76
2022/11/22 01:17:35;;;;;;;5.05;1.00;;;;;;;;;;6203554;22;20001;-75
2022/11/22 01:20:02;;;;;;;4.05;0.77;;;;;;;;;;6205874;23;20235;-75
2022/11/22 01:22:28;;;;;;;5.60;1.27;;;;;;;;;;6205950;23;20043;-74
2022/11/22 01:24:54;;;;;;;7.45;1.15;;;;;;;;;;6203613;23;20020;-73
2022/11/22 01:27:20;;;;;;;4.60;1.02;;;;;;;;;;6205372;23;20004;-75
2022/11/22 01:29:46;;;;;;;3.17;1.00;;;;;;;;;;6205002;23;20011;-75
2022/11/22 01:32:12;;;;;;;3.80;1.10;;;;;;;;;;6205773;23;20047;-74
2022/11/22 01:34:39;;;;;;;4.20;1.10;;;;;;;;;;6205426;23;20021;-73
2022/11/22 01:37:05;;;;;;;6.63;1.00;;;;;;;;;;6205170;23;20004;-79
2022/11/22 01:39:31;;;;;;;8.18;1.00;;;;;;;;;;6203743;23;20370;-78
2022/11/22 01:41:57;;;;;;;4.28;1.02;;;;;;;;;;6205242;23;20001;-74
2022/11/22 01:44:25;;;;;;;7.03;1.13;;;;;;;;;;6205707;23;20461;-77
2022/11/22 01:46:52;;;;;;;5.72;0.93;;;;;;;;;;6205289;23;20060;-74
2022/11/22 01:49:23;;;;;;;2.97;1.00;;;;;;;;;;6205006;23;20007;-75
2022/11/22 01:51:52;;;;;;;5.57;1.63;;;;;;;;;;6204729;23;20012;-74
2022/11/22 01:54:20;;;;;;;3.13;0.88;;;;;;;;;;6203969;23;20001;-74
2022/11/22 01:56:48;;;;;;;4.57;0.90;;;;;;;;;;6205023;23;20000;-74
2022/11/22 01:59:16;;;;;;;4.80;0.80;;;;;;;;;;6204870;23;20001;-73
2022/11/22 02:01:43;;;;;;;4.88;1.40;;;;;;;;;;6203394;23;20090;-74
2022/11/22 02:04:12;;;;;;;6.47;1.05;;;;;;;;;;6205234;23;20437;-74
2022/11/22 02:06:59;;;;;;;5.30;0.93;;;;;;;;;;6204441;23;20005;-80
2022/11/22 02:09:26;;;;;;;5.88;1.08;;;;;;;;;;6205733;23;20030;-74
2022/11/22 02:11:55;;;;;;;2.53;0.70;;;;;;;;;;6203776;23;20008;-74
2022/11/22 02:14:24;;;;;;;2.72;0.90;;;;;;;;;;6205117;23;20027;-74
2022/11/22 02:16:50;;;;;;;4.90;1.13;;;;;;;;;;6204486;23;20012;-73
2022/11/22 02:19:28;;;;;;;2.47;0.60;;;;;;;;;;6205303;23;20007;-78
2022/11/22 02:21:57;;;;;;;5.63;1.10;;;;;;;;;;6205231;23;20000;-74
2022/11/22 02:24:26;;;;;;;3.63;0.85;;;;;;;;;;6203330;23;20333;-75
2022/11/22 02:26:52;;;;;;;4.82;0.60;;;;;;;;;;6204658;23;20413;-75
2022/11/22 02:29:19;;;;;;;3.72;0.88;;;;;;;;;;6204612;23;20612;-74
2022/11/22 02:31:46;;;;;;;4.95;1.25;;;;;;;;;;6205343;23;20009;-74
2022/11/22 02:34:13;;;;;;;1.95;0.85;;;;;;;;;;6203168;23;20079;-74
2022/11/22 02:36:42;;;;;;;4.70;0.95;;;;;;;;;;6205187;23;20425;-74
2022/11/22 02:39:09;;;;;;;8.27;1.20;;;;;;;;;;6204567;23;19996;-74
2022/11/22 02:41:36;;;;;;;9.77;1.00;;;;;;;;;;6205126;23;20009;-78
2022/11/22 02:44:02;;;;;;;4.10;1.20;;;;;;;;;;6203013;23;20456;-76
2022/11/22 02:46:28;;;;;;;13.27;1.13;;;;;;;;;;6204222;23;20093;-74
2022/11/22 02:48:56;;;;;;;10.27;1.38;;;;;;;;;;6205212;23;20036;-73
2022/11/22 02:51:22;;;;;;;4.00;0.80;;;;;;;;;;6203132;23;20421;-74
2022/11/22 02:53:49;;;;;;;6.50;0.93;;;;;;;;;;6203336;23;20059;-74
2022/11/22 02:56:15;;;;;;;3.38;0.68;;;;;;;;;;6204631;23;20040;-74
2022/11/22 02:58:42;;;;;;;4.60;1.00;;;;;;;;;;6204669;23;20001;-74
2022/11/22 03:01:08;;;;;;;2.08;0.80;;;;;;;;;;6203137;23;20058;-74
2022/11/22 03:03:35;;;;;;;3.72;0.70;;;;;;;;;;6204692;23;20019;-75
2022/11/22 03:06:01;;;;;;;4.82;0.98;;;;;;;;;;6204489;23;20619;-74
2022/11/22 03:08:28;;;;;;;2.55;0.80;;;;;;;;;;6202910;23;20001;-81
2022/11/22 03:10:56;;;;;;;3.97;1.00;;;;;;;;;;6205374;23;20008;-74
2022/11/22 03:13:22;;;;;;;7.40;1.45;;;;;;;;;;6205022;23;20007;-74
2022/11/22 03:15:48;;;;;;;3.55;1.05;;;;;;;;;;6204280;23;20011;-73
2022/11/22 03:18:15;;;;;;;3.17;1.33;;;;;;;;;;6205324;23;20017;-74
2022/11/22 03:20:41;;;;;;;3.92;1.42;;;;;;;;;;6204350;23;20382;-79
2022/11/22 03:23:07;;;;;;;9.15;1.52;;;;;;;;;;6206774;23;20626;-74
2022/11/22 03:25:36;;;;;;;4.07;1.30;;;;;;;;;;6207519;23;20062;-74
2022/11/22 03:28:02;;;;;;;4.88;1.00;;;;;;;;;;6207301;23;20020;-82
2022/11/22 03:30:28;;;;;;;6.75;1.23;;;;;;;;;;6203991;23;20046;-81
2022/11/22 03:32:55;;;;;;;4.50;0.82;;;;;;;;;;6207145;23;20000;-74
2022/11/22 03:35:21;;;;;;;3.17;0.90;;;;;;;;;;6207699;23;20023;-73
2022/11/22 03:37:47;;;;;;;3.33;1.00;;;;;;;;;;6210831;23;20001;-76
2022/11/22 03:40:13;;;;;;;3.60;0.98;;;;;;;;;;6209818;23;20086;-75
2022/11/22 03:42:39;;;;;;;6.25;1.10;;;;;;;;;;6211405;23;20597;-73
2022/11/22 03:45:06;;;;;;;1.95;0.60;;;;;;;;;;6204120;23;20008;-73
2022/11/22 03:47:32;;;;;;;2.38;0.80;;;;;;;;;;6204279;23;20004;-74
2022/11/22 03:49:58;;;;;;;2.85;1.00;;;;;;;;;;6204336;23;20057;-74
2022/11/22 03:52:24;;;;;;;3.17;1.00;;;;;;;;;;6202545;23;20001;-74
2022/11/22 03:54:50;;;;;;;6.05;1.00;;;;;;;;;;6203916;23;20426;-74
2022/11/22 03:57:16;;;;;;;4.35;0.90;;;;;;;;;;6203738;23;19997;-80
2022/11/22 03:59:42;;;;;;;5.53;1.10;;;;;;;;;;6204316;23;20001;-74
2022/11/22 04:02:08;;;;;;;6.45;1.00;;;;;;;;;;6204449;23;20011;-74
2022/11/22 04:04:34;;;;;;;3.28;0.95;;;;;;;;;;6201478;23;20421;-74
2022/11/22 04:07:01;;;;;;;7.70;1.42;;;;;;;;;;6204105;23;20015;-74
2022/11/22 04:09:27;;;;;;;5.15;1.67;;;;;;;;;;6202724;23;20009;-74
2022/11/22 04:11:53;;;;;;;4.85;1.42;;;;;;;;;;6204030;23;20001;-74
2022/11/22 04:17:04;;;;;;;6.07;1.23;;;;;;;;;;6202212;23;20102;-73
2022/11/22 04:19:30;;;;;;;4.18;1.10;;;;;;;;;;6199725;23;20012;-74
2022/11/22 04:21:56;;;;;;;2.90;0.70;;;;;;;;;;6201905;23;20009;-75
2022/11/22 04:27:07;;;;;;;6.07;1.17;;;;;;;;;;6201192;23;20087;-74
2022/11/22 04:29:33;;;;;;;3.35;0.82;;;;;;;;;;6203000;23;20450;-74
2022/11/22 04:34:43;;;;;;;11.45;1.35;;;;;;;;;;6203527;23;20063;-74
2022/11/22 04:37:10;;;;;;;3.67;1.02;;;;;;;;;;6203021;23;20019;-74
2022/11/22 04:39:36;;;;;;;6.80;1.35;;;;;;;;;;6201335;23;20005;-73
2022/11/22 04:44:47;;;;;;;5.65;0.98;;;;;;;;;;6203211;23;20088;-75
2022/11/22 04:47:57;;;;;;;5.07;1.30;;;;;;;;;;6200935;23;20036;-73
2022/11/22 04:52:52;;;;;;;5.25;1.30;;;;;;;;;;6203120;23;20016;-73
2022/11/22 04:52:52;;;;;;;8.73;1.90;;;;;;;;;;6203611;23;20083;-77
2022/11/22 04:55:18;;;;;;;5.78;1.90;;;;;;;;;;6201892;23;20001;-74
2022/11/22 04:57:44;;;;;;;5.57;1.98;;;;;;;;;;6202781;23;20322;-73
2022/11/22 05:00:11;;;;;;;2.70;0.95;;;;;;;;;;6202987;23;20005;-73
2022/11/22 05:02:37;;;;;;;4.22;1.15;;;;;;;;;;6202938;23;20273;-73
2022/11/22 05:05:03;;;;;;;7.10;1.48;;;;;;;;;;6203409;23;20421;-74
2022/11/22 05:07:29;;;;;;;5.53;0.90;;;;;;;;;;6202328;23;20040;-79
2022/11/22 05:09:55;;;;;;;2.22;0.80;;;;;;;;;;6200962;23;20001;-73
2022/11/22 05:12:21;;;;;;;3.28;0.70;;;;;;;;;;6203315;23;20009;-74
2022/11/22 05:14:47;;;;;;;3.35;0.73;;;;;;;;;;6202555;23;20001;-74
2022/11/22 05:17:14;;;;;;;4.35;0.90;;;;;;;;;;6200837;23;20004;-79
2022/11/22 05:19:40;;;;;;;3.95;0.95;;;;;;;;;;6203157;23;20015;-73
2022/11/22 05:22:06;;;;;;;4.97;1.75;;;;;;;;;;6203060;23;20001;-77
2022/11/22 05:24:32;;;;;;;2.50;0.85;;;;;;;;;;6202810;23;20004;-79
2022/11/22 05:27:00;;;;;;;3.47;1.08;;;;;;;;;;6201094;23;20323;-73
2022/11/22 05:29:26;;;;;;;3.22;0.98;;;;;;;;;;6203008;23;20028;-75
2022/11/22 05:31:52;;;;;;;2.60;0.90;;;;;;;;;;6202390;23;20012;-75
2022/11/22 05:34:18;;;;;;;2.67;0.90;;;;;;;;;;6202268;23;20019;-73
2022/11/22 05:36:44;;;;;;;5.50;0.80;;;;;;;;;;6201213;23;20012;-73
2022/11/22 05:39:10;;;;;;;3.58;0.80;;;;;;;;;;6203108;23;20578;-78
2022/11/22 05:41:36;;;;;;;7.05;1.00;;;;;;;;;;6202814;23;20000;-73
2022/11/22 05:44:03;;;;;;;3.65;0.80;;;;;;;;;;6203122;23;20008;-74
2022/11/22 05:46:30;;;;;;;7.40;1.20;;;;;;;;;;6200914;23;20021;-74
2022/11/22 05:48:57;;;;;;;10.15;1.30;;;;;;;;;;6200698;23;20007;-79
2022/11/22 05:51:24;;;;;;;5.63;1.25;;;;;;;;;;6202824;23;20001;-74
2022/11/22 05:53:50;;;;;;;7.03;1.80;;;;;;;;;;6202671;23;20016;-73
2022/11/22 05:56:18;;;;;;;3.17;1.10;;;;;;;;;;6202108;23;20024;-73
2022/11/22 05:58:44;;;;;;;5.03;1.40;;;;;;;;;;6200385;23;20001;-74
2022/11/22 06:01:11;;;;;;;8.85;1.15;;;;;;;;;;6202219;23;20584;-74
2022/11/22 06:03:38;;;;;;;5.40;1.13;;;;;;;;;;6202284;23;20641;-73
2022/11/22 06:06:05;;;;;;;4.03;1.10;;;;;;;;;;6202574;23;20012;-73
2022/11/22 06:08:32;;;;;;;3.70;0.88;;;;;;;;;;6201952;23;20004;-73
2022/11/22 06:11:05;;;;;;;2.42;0.70;;;;;;;;;;6200616;23;20334;-74
2022/11/22 06:13:35;;;;;;;4.50;1.05;;;;;;;;;;6202298;23;20005;-73
2022/11/22 06:16:01;;;;;;;4.97;0.95;;;;;;;;;;6202070;23;20005;-73
2022/11/22 06:18:27;;;;;;;3.30;1.25;;;;;;;;;;6201766;23;20072;-74
2022/11/22 06:20:56;;;;;;;5.25;1.13;;;;;;;;;;6200443;23;20031;-73
2022/11/22 06:23:22;;;;;;;4.28;1.60;;;;;;;;;;6202593;23;20001;-73
2022/11/22 06:25:55;;;;;;;5.43;1.10;;;;;;;;;;6201864;23;20020;-73
2022/11/22 06:28:21;;;;;;;6.85;1.60;;;;;;;;;;6201530;23;20070;-74
2022/11/22 06:30:47;;;;;;;14.20;2.28;;;;;;;;;;6202398;23;20008;-72
2022/11/22 06:33:13;;;;;;;6.53;1.33;;;;;;;;;;6200825;23;19997;-73
2022/11/22 06:35:39;;;;;;;8.32;1.70;;;;;;;;;;6202486;23;20025;-72
2022/11/22 06:38:06;;;;;;;6.63;1.17;;;;;;;;;;6201886;23;20023;-72
2022/11/22 06:40:32;;;;;;;7.07;1.30;;;;;;;;;;6202654;23;20001;-73
2022/11/22 06:42:58;;;;;;;5.38;1.23;;;;;;;;;;6200518;23;20004;-73
2022/11/22 06:45:24;;;;;;;10.60;1.45;;;;;;;;;;6202704;23;20583;-72
2022/11/22 06:47:50;;;;;;;7.53;1.92;;;;;;;;;;6201822;23;20063;-72
2022/11/22 06:50:16;;;;;;;6.65;1.33;;;;;;;;;;6202687;23;20008;-72
2022/11/22 06:52:42;;;;;;;7.03;1.30;;;;;;;;;;6200381;23;20100;-73
2022/11/22 06:55:08;;;;;;;3.92;1.38;;;;;;;;;;6201897;23;20007;-73
2022/11/22 06:57:34;;;;;;;8.38;1.50;;;;;;;;;;6201666;23;20001;-74
2022/11/22 07:00:00;;;;;;;11.45;1.45;;;;;;;;;;6201928;23;20016;-73
2022/11/22 07:02:26;;;;;;;8.57;1.25;;;;;;;;;;6202344;23;19997;-72
2022/11/22 07:04:53;;;;;;;8.30;1.88;;;;;;;;;;6201910;23;20070;-73
2022/11/22 07:07:19;;;;;;;4.93;1.30;;;;;;;;;;6199948;23;20008;-73
2022/11/22 07:09:45;;;;;;;5.65;1.73;;;;;;;;;;6202371;23;20032;-73
2022/11/22 07:12:11;;;;;;;8.68;1.70;;;;;;;;;;6202501;23;20063;-73
2022/11/22 07:14:37;;;;;;;3.85;1.38;;;;;;;;;;6202229;23;20418;-73
2022/11/22 07:17:03;;;;;;;5.60;1.45;;;;;;;;;;6201369;23;20562;-75
2022/11/22 07:19:29;;;;;;;9.75;1.75;;;;;;;;;;6200449;23;20026;-73
2022/11/22 07:21:55;;;;;;;8.30;1.65;;;;;;;;;;6201733;23;20102;-73
2022/11/22 07:24:21;;;;;;;7.40;1.30;;;;;;;;;;6201957;23;20004;-72
2022/11/22 07:26:48;;;;;;;12.95;1.92;;;;;;;;;;6201704;23;20077;-72
2022/11/22 07:29:14;;;;;;;8.32;1.60;;;;;;;;;;6200104;23;20001;-76
2022/11/22 07:31:40;;;;;;;6.30;2.00;;;;;;;;;;6202562;23;20001;-72
2022/11/22 07:34:06;;;;;;;7.13;1.90;;;;;;;;;;6201187;23;20342;-72
2022/11/22 07:36:32;;;;;;;6.47;1.40;;;;;;;;;;6201487;23;20011;-72
2022/11/22 07:38:58;;;;;;;6.97;1.48;;;;;;;;;;6201696;23;20056;-72
2022/11/22 07:41:24;;;;;;;7.03;2.10;;;;;;;;;;6200504;23;20027;-72
2022/11/22 07:43:51;;;;;;;5.40;1.38;;;;;;;;;;6202182;23;20434;-72
2022/11/22 07:46:28;;;;;;;6.68;1.70;;;;;;;;;;6201421;23;20086;-72
2022/11/22 07:48:54;;;;;;;9.68;1.85;;;;;;;;;;6201788;23;20003;-76
2022/11/22 07:51:20;;;;;;;9.27;1.90;;;;;;;;;;6200038;23;20008;-73
2022/11/22 07:53:46;;;;;;;14.63;1.63;;;;;;;;;;6202072;23;20020;-72
2022/11/22 07:56:12;;;;;;;6.93;1.80;;;;;;;;;;6201403;23;20368;-74
2022/11/22 07:58:38;;;;;;;15.18;2.92;;;;;;;;;;6201855;23;20024;-73
2022/11/22 08:01:07;;;;;;;16.77;3.08;;;;;;;;;;6199290;23;20097;-71
2022/11/22 08:03:34;;;;;;;6.32;1.42;;;;;;;;;;6202740;23;20028;-72
2022/11/22 08:06:01;;;;;;;12.73;1.88;;;;;;;;;;6203225;23;20009;-72
2022/11/22 08:08:27;;;;;;;4.10;0.88;;;;;;;;;;6201101;23;20020;-73
2022/11/22 08:10:53;;;;;;;6.93;1.30;;;;;;;;;;6199868;23;20000;-77
2022/11/22 08:13:20;;;;;;;4.70;1.15;;;;;;;;;;6202317;23;20029;-75
2022/11/22 08:15:48;;;;;;;8.85;1.13;;;;;;;;;;6201188;23;20548;-74
2022/11/22 08:18:14;;;;;;;11.25;2.15;;;;;;;;;;6202129;23;20005;-83
2022/11/22 08:20:40;;;;;;;5.55;0.90;;;;;;;;;;6203011;23;20337;-83
2022/11/22 08:23:06;;;;;;;2.70;0.68;;;;;;;;;;6201837;23;20063;-82
2022/11/22 08:25:33;;;;;;;1.63;0.60;;;;;;;;;;6201034;23;20008;-86
2022/11/22 08:27:59;;;;;;;4.72;0.50;;;;;;;;;;6201952;23;20009;-82
2022/11/22 08:30:25;;;;;;;3.63;0.57;;;;;;;;;;6203109;23;20438;-78
2022/11/22 08:32:54;;;;;;;3.90;0.60;;;;;;;;;;6202870;23;19996;-74
2022/11/22 08:35:20;;;;;;;2.78;0.70;;;;;;;;;;6201042;23;20083;-75
2022/11/22 08:37:46;;;;;;;2.30;1.13;;;;;;;;;;6202265;23;20004;-78
2022/11/22 08:40:12;;;;;;;4.18;1.17;;;;;;;;;;6203791;23;20001;-80
2022/11/22 08:42:39;;;;;;;6.70;0.77;;;;;;;;;;6202924;23;20003;-76
2022/11/22 08:45:05;;;;;;;2.42;0.60;;;;;;;;;;6202277;23;20005;-75
2022/11/22 08:47:31;;;;;;;4.75;0.50;;;;;;;;;;6202531;23;20088;-75
2022/11/22 08:49:57;;;;;;;3.63;0.50;;;;;;;;;;6200832;23;19997;-75
2022/11/22 08:52:23;;;;;;;3.20;0.70;;;;;;;;;;6202676;23;20016;-74
2022/11/22 08:54:49;;;;;;;3.03;0.63;;;;;;;;;;6176033;23;20009;-81
2022/11/22 08:57:16;;;;;;;5.25;1.20;;;;;;;;;;6202163;23;20005;-74
2022/11/22 08:59:42;;;;;;;6.07;0.93;;;;;;;;;;6200230;23;20005;-74
2022/11/22 09:02:09;;;;;;;4.68;0.88;;;;;;;;;;6202465;23;20089;-74
2022/11/22 09:04:35;;;;;;;1.80;0.73;;;;;;;;;;6202931;23;20001;-74
2022/11/22 09:07:01;;;;;;;5.55;0.80;;;;;;;;;;6202271;23;20019;-74
2022/11/22 09:09:28;;;;;;;2.60;0.85;;;;;;;;;;6200805;23;19996;-74
2022/11/22 09:11:54;;;;;;;6.30;0.85;;;;;;;;;;6202341;23;20008;-74
2022/11/22 09:14:20;;;;;;;5.50;1.20;;;;;;;;;;6202485;23;20007;-74
2022/11/22 09:16:46;;;;;;;5.90;1.10;;;;;;;;;;6202643;23;20027;-77
2022/11/22 09:19:12;;;;;;;5.28;0.60;;;;;;;;;;6201904;23;20004;-75
2022/11/22 09:21:38;;;;;;;4.78;1.08;;;;;;;;;;6200955;23;20067;-74
2022/11/22 09:24:05;;;;;;;6.82;1.13;;;;;;;;;;6202171;23;20065;-74
2022/11/22 09:26:31;;;;;;;6.82;1.05;;;;;;;;;;6201347;23;20491;-73
2022/11/22 09:28:58;;;;;;;8.85;1.08;;;;;;;;;;6201981;22;20004;-74
2022/11/22 09:31:24;;;;;;;3.33;1.05;;;;;;;;;;6200171;23;20079;-75
2022/11/22 09:33:50;;;;;;;5.70;1.35;;;;;;;;;;6202297;23;20000;-74
2022/11/22 09:36:17;;;;;;;1.98;0.70;;;;;;;;;;6202450;23;20020;-74
2022/11/22 09:38:44;;;;;;;3.92;0.70;;;;;;;;;;6201827;23;20004;-75
2022/11/22 09:41:13;;;;;;;3.40;1.40;;;;;;;;;;6202172;23;20075;-74
2022/11/22 09:43:45;;;;;;;4.07;1.00;;;;;;;;;;6200332;23;20087;-74
2022/11/22 09:46:34;;;;;;;5.88;0.80;;;;;;;;;;6202624;23;20297;-75
2022/11/22 09:49:15;;;;;;;2.92;0.70;;;;;;;;;;6158816;23;20452;-74
2022/11/22 09:51:46;;;;;;;10.15;1.13;;;;;;;;;;6203994;23;20013;-77
2022/11/22 09:54:15;;;;;;;4.75;1.10;;;;;;;;;;6208158;23;20204;-75
2022/11/22 09:56:41;;;;;;;7.13;0.95;;;;;;;;;;6206084;23;20004;-73
2022/11/22 09:59:10;;;;;;;8.00;1.30;;;;;;;;;;6205474;23;20011;-76
2022/11/22 10:01:44;;;;;;;11.05;2.33;;;;;;;;;;6207119;23;20354;-75
2022/11/22 10:04:11;;;;;;;5.05;1.33;;;;;;;;;;6201070;23;19997;-76
2022/11/22 10:06:39;;;;;;;6.38;1.58;;;;;;;;;;6202180;23;20020;-74
2022/11/22 10:09:20;;;;;;;10.98;2.33;;;;;;;;;;6202180;23;20005;-74
2022/11/22 10:11:54;;;;;;;7.90;1.98;;;;;;;;;;6200786;23;20079;-74
2022/11/22 10:14:39;;;;;;;9.93;2.38;;;;;;;;;;6201498;23;19996;-74
2022/11/22 10:17:14;;;;;;;9.25;1.98;;;;;;;;;;6201280;23;20063;-74
2022/11/22 10:19:51;;;;;;;10.25;2.60;;;;;;;;;;6199809;23;20357;-75
2022/11/22 10:22:18;;;;;;;13.75;2.55;;;;;;;;;;6201852;23;20083;-74
2022/11/22 10:24:44;;;;;;;11.02;2.10;;;;;;;;;;6200942;23;20384;-75
2022/11/22 10:27:14;;;;;;;12.02;2.25;;;;;;;;;;6198980;23;20004;-75
2022/11/22 10:29:46;;;;;;;10.57;2.10;;;;;;;;;;6201438;23;20008;-75
2022/11/22 10:32:22;;;;;;;10.00;1.80;;;;;;;;;;6200214;23;20004;-74
2022/11/22 10:34:54;;;;;;;11.10;1.67;;;;;;;;;;6201579;23;20039;-74
2022/11/22 10:37:20;;;;;;;;;;;;;;;;;;6201625;23;20000;-74
2022/11/22 10:40:09;;;;;;;11.15;1.63;;;;;;;;;;6201687;23;19907;-75
2022/11/22 10:42:57;;;;;;;7.38;1.35;;;;;;;;;;6199846;23;20011;-75
2022/11/22 10:45:26;;;;;;;9.85;1.40;;;;;;;;;;6201471;23;20013;-75
2022/11/22 10:47:58;;;;;;;9.50;1.40;;;;;;;;;;6201078;23;20543;-75
2022/11/22 10:50:31;;;;;;;7.32;1.20;;;;;;;;;;6199694;23;20507;-75
2022/11/22 10:52:57;;;;;;;9.40;1.92;;;;;;;;;;6201286;23;20007;-75
2022/11/22 10:55:23;;;;;;;7.57;1.40;;;;;;;;;;6201474;23;20004;-74
2022/11/22 10:57:52;;;;;;;8.38;1.17;;;;;;;;;;6201644;23;19997;-75
2022/11/22 11:00:24;;;;;;;4.05;1.02;;;;;;;;;;6199813;23;20004;-75
2022/11/22 11:03:05;;;;;;;5.63;1.08;;;;;;;;;;6201805;23;20004;-74
2022/11/22 11:05:41;;;;;;;4.95;0.98;;;;;;;;;;6201485;23;20050;-74
2022/11/22 11:08:09;;;;;;;4.47;0.93;;;;;;;;;;6201711;23;20028;-75
2022/11/22 11:10:36;;;;;;;2.92;0.93;;;;;;;;;;6201578;23;20441;-75
2022/11/22 11:13:05;;;;;;;6.93;1.13;;;;;;;;;;6202178;23;20005;-75
2022/11/22 11:15:51;;;;;;;6.10;1.17;;;;;;;;;;6199861;23;20008;-75
2022/11/22 11:18:20;;;;;;;8.02;1.45;;;;;;;;;;6201375;23;20008;-74
2022/11/22 11:20:47;;;;;;;6.85;1.55;;;;;;;;;;6201663;23;20004;-74
2022/11/22 11:23:14;;;;;;;8.38;1.33;;;;;;;;;;6201249;23;20092;-74
2022/11/22 11:25:41;;;;;;;6.43;1.42;;;;;;;;;;6200390;23;20028;-77
2022/11/22 11:28:19;;;;;;;7.32;1.65;;;;;;;;;;6200264;23;20001;-77
2022/11/22 11:31:06;;;;;;;10.38;1.50;;;;;;;;;;6201818;23;20008;-76
2022/11/22 11:33:34;;;;;;;10.93;1.30;;;;;;;;;;6201618;22;20059;-75
2022/11/22 11:36:03;;;;;;;16.95;2.05;;;;;;;;;;6199639;22;20082;-79
2022/11/22 11:38:31;;;;;;;10.98;3.13;;;;;;;;;;6200048;23;20001;-75
2022/11/22 11:40:57;;;;;;;11.38;2.30;;;;;;;;;;6201469;23;20585;-77
2022/11/22 11:43:24;;;;;;;10.80;2.20;;;;;;;;;;6201295;23;20456;-76
2022/11/22 11:45:50;;;;;;;16.45;2.78;;;;;;;;;;6201369;23;20093;-75
2022/11/22 11:48:27;;;;;;;12.43;2.22;;;;;;;;;;6199328;23;20003;-76
2022/11/22 11:51:05;;;;;;;12.25;2.22;;;;;;;;;;6199427;23;20430;-76
2022/11/22 11:53:31;;;;;;;27.23;2.80;;;;;;;;;;6199646;23;20004;-75
2022/11/22 11:56:17;;;;;;;13.02;2.38;;;;;;;;;;6200123;23;20040;-76
2022/11/22 11:58:49;;;;;;;15.80;1.92;;;;;;;;;;6196975;23;20376;-76
2022/11/22 12:01:15;;;;;;;;;;;;;;;;;;6200115;23;20064;-76
2022/11/22 12:03:41;;;;;;;7.30;1.88;;;;;;;;;;6199202;23;19939;-78
2022/11/22 12:06:11;;;;;;;7.75;1.83;;;;;;;;;;6199062;23;20013;-76
2022/11/22 12:08:37;;;;;;;13.90;1.92;;;;;;;;;;6199972;23;20009;-76
2022/11/22 12:11:13;;;;;;;6.95;1.40;;;;;;;;;;6198576;23;20075;-76
2022/11/22 12:13:40;;;;;;;19.63;2.33;;;;;;;;;;6201357;23;20233;-76
2022/11/22 12:16:15;;;;;;;15.23;2.05;;;;;;;;;;6201063;23;20051;-77
2022/11/22 12:18:41;;;;;;;7.75;1.45;;;;;;;;;;6200951;23;20016;-76
2022/11/22 12:21:27;;;;;;;8.35;1.90;;;;;;;;;;6201266;23;20024;-76
2022/11/22 12:24:14;;;;;;;15.40;2.75;;;;;;;;;;6199934;23;20084;-76
2022/11/22 12:26:41;;;;;;;9.57;1.83;;;;;;;;;;6201124;23;20425;-76
2022/11/22 12:29:09;;;;;;;9.15;1.77;;;;;;;;;;6201105;23;20000;-75
2022/11/22 12:31:49;;;;;;;14.18;2.17;;;;;;;;;;6201093;23;20028;-75
2022/11/22 12:34:15;;;;;;;12.10;2.20;;;;;;;;;;6200767;23;20013;-78
2022/11/22 12:36:46;;;;;;;10.95;2.40;;;;;;;;;;6199473;23;20005;-77
2022/11/22 12:39:15;;;;;;;12.50;2.53;;;;;;;;;;6200784;23;20091;-76
2022/11/22 12:41:42;;;;;;;13.07;3.25;;;;;;;;;;6200795;23;20001;-76
2022/11/22 12:44:13;;;;;;;14.30;2.30;;;;;;;;;;6201434;23;20084;-78
2022/11/22 12:46:41;;;;;;;11.80;2.55;;;;;;;;;;6198796;23;20008;-77
2022/11/22 12:49:16;;;;;;;12.73;2.30;;;;;;;;;;6201173;23;20024;-76
2022/11/22 12:51:45;;;;;;;19.00;2.67;;;;;;;;;;6202498;23;20001;-75
2022/11/22 12:54:18;;;;;;;13.60;3.05;;;;;;;;;;6202751;23;20501;-77
2022/11/22 12:56:47;;;;;;;12.75;2.25;;;;;;;;;;6202597;23;20004;-78
2022/11/22 12:59:13;;;;;;;13.10;2.33;;;;;;;;;;6200724;23;20000;-78
2022/11/22 13:01:42;;;;;;;12.68;2.38;;;;;;;;;;6202465;23;20609;-77
2022/11/22 13:04:09;;;;;;;14.93;2.60;;;;;;;;;;6203251;23;20004;-76
2022/11/22 13:06:54;;;;;;;12.23;3.00;;;;;;;;;;6200776;23;20070;-76
2022/11/22 13:09:23;;;;;;;17.55;3.58;;;;;;;;;;6202582;23;20091;-76
2022/11/22 13:11:52;;;;;;;17.05;2.85;;;;;;;;;;6203137;23;20491;-76
2022/11/22 13:14:20;;;;;;;16.75;3.33;;;;;;;;;;6202828;23;20434;-77
2022/11/22 13:16:47;;;;;;;10.32;2.80;;;;;;;;;;6200643;23;20425;-76
2022/11/22 13:19:14;;;;;;;13.60;2.97;;;;;;;;;;6202732;23;20005;-77
2022/11/22 13:21:59;;;;;;;13.55;2.83;;;;;;;;;;6201485;23;20008;-77
2022/11/22 13:24:37;;;;;;;15.73;3.15;;;;;;;;;;6203077;23;20000;-76
2022/11/22 13:27:09;;;;;;;14.30;3.00;;;;;;;;;;6202466;23;20064;-76
2022/11/22 13:29:36;;;;;;;13.93;2.67;;;;;;;;;;6202163;23;20004;-76
2022/11/22 13:32:05;;;;;;;22.40;3.65;;;;;;;;;;6200715;23;20001;-77
2022/11/22 13:34:32;;;;;;;12.98;3.72;;;;;;;;;;6202443;23;20020;-78
2022/11/22 13:37:12;;;;;;;15.20;3.38;;;;;;;;;;6200693;23;20499;-77
2022/11/22 13:39:45;;;;;;;12.02;3.25;;;;;;;;;;6202813;23;20035;-77
2022/11/22 13:42:18;;;;;;;18.65;3.00;;;;;;;;;;6201232;23;20075;-77
2022/11/22 13:44:56;;;;;;;10.00;2.95;;;;;;;;;;6202535;23;20005;-77
2022/11/22 13:47:22;;;;;;;23.95;3.92;;;;;;;;;;6202374;23;20571;-75
2022/11/22 13:49:49;;;;;;;17.70;3.03;;;;;;;;;;6200120;23;19996;-77
2022/11/22 13:52:15;;;;;;;15.60;2.97;;;;;;;;;;6202298;23;20079;-77
2022/11/22 13:54:47;;;;;;;21.58;3.38;;;;;;;;;;6202172;23;20054;-77
2022/11/22 13:57:13;;;;;;;;;;;;;;;;;;6202677;23;20047;-77
2022/11/22 13:59:39;;;;;;;17.63;3.47;;;;;;;;;;6201970;23;19931;-77
2022/11/22 14:02:20;;;;;;;15.57;3.33;;;;;;;;;;6200507;23;20012;-77
2022/11/22 14:04:52;;;;;;;18.20;2.72;;;;;;;;;;6202399;23;20330;-78
2022/11/22 14:07:18;;;;;;;21.92;3.00;;;;;;;;;;6201977;23;20088;-77
2022/11/22 14:09:44;;;;;;;12.20;2.97;;;;;;;;;;6200815;23;20036;-77
2022/11/22 14:12:11;;;;;;;17.65;2.75;;;;;;;;;;6202403;23;20054;-77
2022/11/22 14:14:47;;;;;;;19.67;3.30;;;;;;;;;;6200587;23;20001;-76
2022/11/22 14:17:38;;;;;;;18.02;3.28;;;;;;;;;;6201762;22;20070;-77
2022/11/22 14:20:19;;;;;;;16.63;2.95;;;;;;;;;;6201587;23;20005;-78
2022/11/22 14:22:50;;;;;;;19.50;3.45;;;;;;;;;;6202445;23;20457;-76
2022/11/22 14:25:25;;;;;;;12.40;3.00;;;;;;;;;;6202641;23;20011;-78
2022/11/22 14:28:12;;;;;;;17.10;2.83;;;;;;;;;;6201712;23;20004;-75
2022/11/22 14:30:44;;;;;;;12.30;2.60;;;;;;;;;;6199556;23;20076;-76
2022/11/22 14:33:15;;;;;;;8.10;1.75;;;;;;;;;;6202299;23;20015;-79
2022/11/22 14:36:01;;;;;;;8.57;1.90;;;;;;;;;;6202043;23;20143;-78
2022/11/22 14:38:29;;;;;;;6.75;1.27;;;;;;;;;;6185707;23;20007;-77
2022/11/22 14:41:14;;;;;;;10.77;1.73;;;;;;;;;;6199877;23;20000;-75
2022/11/22 14:43:41;;;;;;;12.20;2.17;;;;;;;;;;6201494;23;20032;-76
2022/11/22 14:46:12;;;;;;;11.93;3.58;;;;;;;;;;6202459;23;20009;-77
2022/11/22 14:48:52;;;;;;;14.23;2.25;;;;;;;;;;6200439;23;20475;-76
2022/11/22 14:51:28;;;;;;;10.23;2.08;;;;;;;;;;6200081;23;20491;-77
2022/11/22 14:53:59;;;;;;;13.13;1.85;;;;;;;;;;6201653;23;20072;-75
2022/11/22 14:56:25;;;;;;;13.43;2.65;;;;;;;;;;6201699;23;20086;-78
2022/11/22 14:59:01;;;;;;;18.02;2.83;;;;;;;;;;6199479;22;20322;-78
2022/11/22 15:01:42;;;;;;;19.20;2.60;;;;;;;;;;6202061;23;20028;-78